Time;durP1;ratioP1;P1;durP2;ratioP2;P2;SDS_P1;SDS_P2;PMS_P1;PMS_P2;Temp;Humidity;BMP_temperature;BMP_pressure;BME280_temperature;BME280_humidity;BME280_pressure;Samples;Min_cycle;Max_cycle;Signal;HPM_P1;HPM_P2
2022/05/02 00:00:30;;;;;;;31.38;15.77;;;9.80;99.90;;;;;;4995776;28;20026;-70
2022/05/02 00:02:56;;;;;;;24.63;13.20;;;9.70;99.90;;;;;;4995991;28;20026;-71
2022/05/02 00:05:22;;;;;;;25.05;13.63;;;9.70;99.90;;;;;;4995405;28;20414;-70
2022/05/02 00:07:47;;;;;;;26.75;13.75;;;9.70;99.90;;;;;;4995566;28;20038;-70
2022/05/02 00:10:13;;;;;;;24.95;13.57;;;9.60;99.90;;;;;;4995840;28;20018;-70
2022/05/02 00:12:40;;;;;;;21.45;12.30;;;9.60;99.90;;;;;;4995568;28;20440;-70
2022/05/02 00:15:07;;;;;;;22.77;12.73;;;9.50;99.90;;;;;;4995515;28;20085;-70
2022/05/02 00:20:18;;;;;;;26.02;13.10;;;9.40;99.90;;;;;;4995697;28;20089;-70
2022/05/02 00:22:44;;;;;;;28.38;13.52;;;9.40;99.90;;;;;;4995349;28;20026;-70
2022/05/02 00:25:10;;;;;;;21.88;12.25;;;9.40;99.90;;;;;;4977813;28;20073;-70
2022/05/02 00:27:39;;;;;;;23.98;12.20;;;9.50;99.90;;;;;;4995677;28;20042;-70
2022/05/02 00:30:06;;;;;;;24.30;12.93;;;9.50;99.90;;;;;;4977769;28;20080;-71
2022/05/02 00:32:32;;;;;;;24.33;13.25;;;9.50;99.90;;;;;;4995437;28;20088;-70
2022/05/02 00:34:57;;;;;;;23.52;12.70;;;9.50;99.90;;;;;;4995696;28;20027;-71
2022/05/02 00:37:23;;;;;;;22.90;13.15;;;9.50;99.90;;;;;;4995119;28;20344;-70
2022/05/02 00:39:49;;;;;;;25.77;13.23;;;9.50;99.90;;;;;;4995436;28;20029;-70
2022/05/02 00:42:14;;;;;;;25.42;13.18;;;9.40;99.90;;;;;;4995036;28;20025;-71
2022/05/02 00:44:43;;;;;;;22.45;12.93;;;9.40;99.90;;;;;;4995091;28;20026;-70
2022/05/02 00:47:09;;;;;;;24.92;13.40;;;9.40;99.90;;;;;;4995129;28;20061;-71
2022/05/02 00:49:37;;;;;;;23.35;13.13;;;9.40;99.90;;;;;;4994989;28;20062;-70
2022/05/02 00:52:05;;;;;;;24.45;13.13;;;9.40;99.90;;;;;;4994820;28;20033;-70
2022/05/02 00:54:31;;;;;;;23.02;12.40;;;9.40;99.90;;;;;;4995342;28;20109;-70
2022/05/02 00:56:58;;;;;;;27.88;13.57;;;9.40;99.90;;;;;;4993276;28;20034;-70
2022/05/02 00:59:24;;;;;;;22.67;12.77;;;9.40;99.90;;;;;;4995303;28;20034;-70
2022/05/02 01:01:50;;;;;;;24.70;13.50;;;9.40;99.90;;;;;;4994666;28;20022;-71
2022/05/02 01:04:15;;;;;;;22.98;13.10;;;9.30;99.90;;;;;;4994618;28;20029;-70
2022/05/02 01:07:41;;;;;;;24.38;13.55;;;9.30;99.90;;;;;;4994849;28;20022;-71
2022/05/02 01:09:47;;;;;;;24.02;13.25;;;9.30;99.90;;;;;;4977891;28;20046;-71
2022/05/02 01:12:22;;;;;;;25.80;13.25;;;9.30;99.90;;;;;;4994833;28;20054;-71
2022/05/02 01:14:52;;;;;;;26.33;14.18;;;9.20;99.90;;;;;;4994415;28;20042;-70
2022/05/02 01:17:18;;;;;;;25.27;14.20;;;9.20;99.90;;;;;;4976989;28;20030;-70
2022/05/02 01:19:44;;;;;;;27.42;13.55;;;9.10;99.90;;;;;;4994707;28;20456;-70
2022/05/02 01:22:10;;;;;;;24.42;13.43;;;9.10;99.90;;;;;;4994036;28;20026;-70
2022/05/02 01:24:38;;;;;;;24.92;13.52;;;9.00;99.90;;;;;;4994646;28;20145;-71
2022/05/02 01:27:05;;;;;;;22.65;13.65;;;8.90;99.90;;;;;;4994527;28;20028;-70
2022/05/02 01:29:32;;;;;;;23.45;13.52;;;8.80;99.90;;;;;;4976596;28;20467;-71
2022/05/02 01:31:58;;;;;;;25.77;13.20;;;8.70;99.90;;;;;;4994277;28;20023;-70
2022/05/02 01:34:24;;;;;;;26.50;13.35;;;8.70;99.90;;;;;;4994264;28;20482;-70
2022/05/02 01:36:50;;;;;;;25.08;13.68;;;8.60;99.90;;;;;;4976427;28;20030;-70
2022/05/02 01:39:16;;;;;;;26.52;13.82;;;8.60;99.90;;;;;;4994215;28;20026;-70
2022/05/02 01:41:41;;;;;;;26.90;13.82;;;8.50;99.90;;;;;;4993891;28;20422;-70
2022/05/02 01:44:07;;;;;;;25.35;13.88;;;8.60;99.90;;;;;;4993795;28;20053;-70
2022/05/02 01:46:33;;;;;;;27.50;14.30;;;8.50;99.90;;;;;;4994459;28;20026;-70
2022/05/02 01:48:59;;;;;;;27.58;14.80;;;8.50;99.90;;;;;;4994009;28;20445;-70
2022/05/02 01:51:25;;;;;;;25.80;13.88;;;8.50;99.90;;;;;;4995510;28;20072;-71
2022/05/02 01:53:51;;;;;;;26.55;13.68;;;8.50;99.90;;;;;;4998674;28;20019;-71
2022/05/02 01:56:16;;;;;;;29.00;14.50;;;8.50;99.90;;;;;;4998355;28;20320;-70
2022/05/02 01:58:42;;;;;;;25.38;14.57;;;8.40;99.90;;;;;;4997783;28;20451;-70
2022/05/02 02:01:08;;;;;;;26.17;14.02;;;8.40;99.90;;;;;;4980458;28;20018;-70
2022/05/02 02:03:33;;;;;;;27.95;14.68;;;8.40;99.90;;;;;;4980426;28;20105;-70
2022/05/02 02:06:00;;;;;;;26.42;14.05;;;8.40;99.90;;;;;;4980469;28;20029;-71
2022/05/02 02:08:31;;;;;;;26.67;14.43;;;8.30;99.90;;;;;;4998027;28;20026;-70
2022/05/02 02:10:59;;;;;;;26.02;14.23;;;8.30;99.90;;;;;;4997834;28;20026;-70
2022/05/02 02:13:25;;;;;;;27.05;14.10;;;8.20;99.90;;;;;;4997485;28;20487;-70
2022/05/02 02:15:53;;;;;;;27.35;14.45;;;8.20;99.90;;;;;;4997688;28;20383;-70
2022/05/02 02:18:18;;;;;;;27.17;14.82;;;8.20;99.90;;;;;;4997955;28;20034;-70
2022/05/02 02:20:47;;;;;;;26.98;13.88;;;8.20;99.90;;;;;;4997659;28;20371;-71
2022/05/02 02:23:14;;;;;;;26.95;13.90;;;8.20;99.90;;;;;;4997613;28;20026;-70
2022/05/02 02:25:40;;;;;;;28.42;14.48;;;8.10;99.90;;;;;;4997523;28;20023;-70
2022/05/02 02:28:06;;;;;;;28.75;14.48;;;8.10;99.90;;;;;;4997344;28;20026;-70
2022/05/02 02:30:32;;;;;;;27.60;14.70;;;8.10;99.90;;;;;;4997170;28;20105;-71
2022/05/02 02:32:59;;;;;;;27.33;14.00;;;8.00;99.90;;;;;;4980141;28;20333;-70
2022/05/02 02:35:25;;;;;;;29.55;14.73;;;7.90;99.90;;;;;;4997351;28;20029;-70
2022/05/02 02:37:51;;;;;;;29.65;14.13;;;7.90;99.90;;;;;;4997043;28;20026;-70
2022/05/02 02:40:18;;;;;;;25.55;13.65;;;7.90;99.90;;;;;;4997593;28;20026;-70
2022/05/02 02:42:44;;;;;;;25.92;13.18;;;7.70;99.90;;;;;;4997082;28;20018;-70
2022/05/02 02:45:10;;;;;;;25.08;13.75;;;7.70;99.90;;;;;;4996921;28;20477;-70
2022/05/02 02:47:36;;;;;;;26.92;13.30;;;7.70;99.90;;;;;;4997404;28;20039;-70
2022/05/02 02:50:03;;;;;;;27.42;13.88;;;7.70;99.90;;;;;;4997312;28;20019;-70
2022/05/02 02:52:28;;;;;;;28.77;13.63;;;7.70;99.90;;;;;;4997368;28;20018;-70
2022/05/02 02:54:54;;;;;;;24.65;13.30;;;7.60;99.90;;;;;;4997001;28;20080;-70
2022/05/02 02:57:20;;;;;;;25.10;13.48;;;7.50;99.90;;;;;;4996998;28;20022;-70
2022/05/02 02:59:45;;;;;;;28.30;14.02;;;7.50;99.90;;;;;;4979434;28;20029;-70
2022/05/02 03:02:11;;;;;;;23.58;12.48;;;7.40;99.90;;;;;;4979757;28;20458;-70
2022/05/02 03:07:24;;;;;;;30.95;13.75;;;7.40;99.90;;;;;;4996605;28;20031;-70
2022/05/02 03:09:50;;;;;;;24.88;13.55;;;7.40;99.90;;;;;;4996871;28;20455;-71
2022/05/02 03:12:17;;;;;;;27.70;13.98;;;7.40;99.90;;;;;;4996735;28;20026;-71
2022/05/02 03:14:43;;;;;;;22.75;12.63;;;7.30;99.90;;;;;;4996910;28;20133;-70
2022/05/02 03:17:08;;;;;;;25.83;13.07;;;7.20;99.90;;;;;;4979191;28;20066;-70
2022/05/02 03:19:34;;;;;;;25.48;13.45;;;7.20;99.90;;;;;;4996329;28;20105;-71
2022/05/02 03:21:59;;;;;;;45.95;13.82;;;7.10;99.90;;;;;;4996294;28;20022;-58
2022/05/02 03:24:25;;;;;;;62.38;14.68;;;7.10;99.90;;;;;;4996523;28;20030;-58
2022/05/02 03:26:51;;;;;;;95.82;15.30;;;7.10;99.90;;;;;;4996741;28;20026;-59
2022/05/02 03:29:17;;;;;;;86.55;14.55;;;7.10;99.90;;;;;;4995661;28;20034;-58
2022/05/02 03:31:43;;;;;;;54.92;14.02;;;7.20;99.90;;;;;;4996439;28;20030;-58
2022/05/02 03:34:08;;;;;;;26.52;13.55;;;7.20;99.90;;;;;;4996079;28;20392;-58
2022/05/02 03:36:35;;;;;;;28.77;13.63;;;7.10;99.90;;;;;;4996294;28;20069;-58
2022/05/02 03:39:01;;;;;;;26.55;13.40;;;7.00;99.90;;;;;;4996240;28;20026;-58
2022/05/02 03:41:27;;;;;;;30.67;15.32;;;6.90;99.90;;;;;;4996143;28;20097;-58
2022/05/02 03:43:52;;;;;;;28.25;13.70;;;6.90;99.90;;;;;;4996139;28;20018;-58
2022/05/02 03:46:18;;;;;;;28.77;14.43;;;6.80;99.90;;;;;;4995810;28;20026;-58
2022/05/02 03:48:46;;;;;;;40.58;13.70;;;6.80;99.90;;;;;;4978780;28;20448;-58
2022/05/02 03:51:12;;;;;;;26.33;12.95;;;6.80;99.90;;;;;;4996267;28;20097;-58
2022/05/02 03:53:38;;;;;;;27.17;14.48;;;6.80;99.90;;;;;;4996009;28;20106;-58
2022/05/02 03:56:04;;;;;;;26.67;14.18;;;6.80;99.90;;;;;;4978385;28;20030;-59
2022/05/02 03:58:30;;;;;;;26.98;13.90;;;6.70;99.90;;;;;;4996103;28;20411;-58
2022/05/02 04:00:55;;;;;;;28.30;14.00;;;6.70;99.90;;;;;;4995827;28;20057;-58
2022/05/02 04:03:21;;;;;;;31.48;13.70;;;6.60;99.90;;;;;;4979045;28;20317;-57
2022/05/02 04:05:47;;;;;;;34.33;14.57;;;6.60;99.90;;;;;;4995371;28;20467;-58
2022/05/02 04:08:12;;;;;;;43.33;14.20;;;6.60;99.90;;;;;;4995891;28;20104;-57
2022/05/02 04:10:38;;;;;;;84.72;13.35;;;6.60;99.90;;;;;;4994897;28;20399;-57
2022/05/02 04:13:04;;;;;;;70.28;14.40;;;6.60;99.90;;;;;;4981473;28;20478;-58
2022/05/02 04:15:30;;;;;;;79.70;15.52;;;6.60;99.90;;;;;;5014780;28;20053;-58
2022/05/02 04:17:58;;;;;;;37.67;13.57;;;6.60;99.90;;;;;;4997585;28;20030;-58
2022/05/02 04:20:24;;;;;;;35.30;14.32;;;6.70;99.90;;;;;;5015018;28;20328;-57
2022/05/02 04:22:49;;;;;;;34.95;15.18;;;6.70;99.90;;;;;;5014916;28;20022;-59
2022/05/02 04:25:15;;;;;;;32.58;13.82;;;6.70;99.90;;;;;;4997355;28;20092;-59
2022/05/02 04:27:41;;;;;;;63.67;14.80;;;6.60;99.90;;;;;;4997204;28;20030;-58
2022/05/02 04:30:07;;;;;;;63.63;13.93;;;6.60;99.90;;;;;;5014892;28;20025;-59
2022/05/02 04:32:33;;;;;;;117.55;15.07;;;6.70;99.90;;;;;;5014819;28;20029;-59
2022/05/02 04:34:59;;;;;;;106.55;15.23;;;6.70;99.90;;;;;;5014806;28;20022;-58
2022/05/02 04:37:25;;;;;;;179.05;15.23;;;6.80;99.90;;;;;;5014980;28;20026;-58
2022/05/02 04:39:51;;;;;;;89.70;13.90;;;6.90;99.90;;;;;;5014953;28;20021;-57
2022/05/02 04:42:17;;;;;;;54.28;15.13;;;6.90;99.90;;;;;;4997813;28;20129;-58
2022/05/02 04:44:43;;;;;;;154.98;15.63;;;6.90;99.90;;;;;;5014997;28;20029;-58
2022/05/02 04:47:08;;;;;;;100.25;14.77;;;6.90;99.90;;;;;;5014732;28;20026;-58
2022/05/02 04:49:34;;;;;;;110.30;16.20;;;6.90;99.90;;;;;;5014529;28;20096;-58
2022/05/02 04:51:59;;;;;;;266.70;18.05;;;6.90;99.90;;;;;;5014736;28;20570;-57
2022/05/02 04:54:25;;;;;;;46.67;13.98;;;7.00;99.90;;;;;;4997296;28;20435;-57
2022/05/02 04:56:51;;;;;;;117.68;14.52;;;6.90;99.90;;;;;;5014074;28;20021;-58
2022/05/02 04:59:16;;;;;;;126.22;15.18;;;6.80;99.90;;;;;;5014347;28;20025;-57
2022/05/02 05:01:42;;;;;;;103.53;15.15;;;6.90;99.90;;;;;;5014831;28;20018;-57
2022/05/02 05:04:09;;;;;;;132.98;15.45;;;6.90;99.90;;;;;;5014705;28;20018;-58
2022/05/02 05:06:35;;;;;;;371.20;17.83;;;7.00;99.90;;;;;;5014532;28;20024;-58
2022/05/02 05:09:01;;;;;;;255.27;16.00;;;7.00;99.90;;;;;;4997185;28;20362;-58
2022/05/02 05:11:50;;;;;;;125.45;14.63;;;6.90;99.90;;;;;;5014147;28;20374;-58
2022/05/02 05:17:31;;;;;;;166.60;15.73;;;6.90;99.90;;;;;;5013880;28;20088;-59
2022/05/02 05:20:04;;;;;;;166.10;13.98;;;7.00;99.90;;;;;;5014308;28;20450;-58
2022/05/02 05:22:56;;;;;;;100.78;12.63;;;6.80;99.90;;;;;;5013993;28;20021;-58
2022/05/02 05:25:24;;;;;;;47.50;11.82;;;6.80;99.90;;;;;;5013385;28;20112;-59
2022/05/02 05:27:56;;;;;;;59.97;12.48;;;6.70;99.90;;;;;;5013779;28;20040;-59
2022/05/02 05:30:21;;;;;;;156.65;14.07;;;6.80;99.90;;;;;;5013158;28;20026;-58
2022/05/02 05:33:39;;;;;;;69.10;12.90;;;6.90;99.90;;;;;;4996733;28;20022;-58
2022/05/02 05:36:23;;;;;;;81.75;13.00;;;7.00;99.90;;;;;;4915128;29;20024;-59
2022/05/02 05:39:02;;;;;;;63.47;11.80;;;7.00;99.90;;;;;;4996739;28;20022;-59
2022/05/02 05:42:06;;;;;;;114.70;13.63;;;7.10;99.90;;;;;;5013840;28;20116;-58
2022/05/02 05:44:38;;;;;;;25.15;12.13;;;7.40;99.90;;;;;;5009247;28;20076;-59
2022/05/02 05:47:03;;;;;;;25.33;13.25;;;7.40;99.90;;;;;;5014342;28;20034;-58
2022/05/02 05:49:55;;;;;;;24.50;13.70;;;7.50;99.90;;;;;;5013350;28;20114;-58
2022/05/02 05:52:45;;;;;;;49.80;13.68;;;7.50;99.90;;;;;;5014280;28;20457;-58
2022/05/02 05:55:22;;;;;;;28.38;15.00;;;7.60;99.90;;;;;;5014057;28;20064;-58
2022/05/02 05:58:02;;;;;;;31.13;14.32;;;7.70;99.90;;;;;;5014481;28;20034;-57
2022/05/02 06:00:34;;;;;;;82.22;14.38;;;7.80;99.90;;;;;;5013923;28;20512;-58
2022/05/02 06:03:12;;;;;;;108.63;15.07;;;8.10;99.90;;;;;;5014164;28;20025;-58
2022/05/02 06:05:40;;;;;;;41.38;13.45;;;8.20;99.90;;;;;;5012905;28;20026;-58
2022/05/02 06:08:18;;;;;;;176.43;15.57;;;8.30;99.90;;;;;;5003439;28;20030;-58
2022/05/02 06:10:45;;;;;;;53.78;13.93;;;8.40;99.90;;;;;;4993810;28;20034;-58
2022/05/02 06:13:15;;;;;;;26.05;12.85;;;8.50;99.90;;;;;;4993979;28;20081;-58
2022/05/02 06:18:34;;;;;;;59.60;13.65;;;8.70;99.90;;;;;;4993752;28;20097;-57
2022/05/02 06:21:03;;;;;;;23.30;13.02;;;8.70;99.90;;;;;;4976074;28;20105;-58
2022/05/02 06:23:33;;;;;;;24.20;12.93;;;8.80;99.90;;;;;;4993608;28;20022;-58
2022/05/02 06:25:59;;;;;;;23.30;12.77;;;9.00;99.90;;;;;;4993829;28;20072;-58
2022/05/02 06:28:33;;;;;;;26.90;13.35;;;9.20;99.90;;;;;;4977025;28;20402;-58
2022/05/02 06:31:01;;;;;;;23.33;13.23;;;9.50;99.90;;;;;;4993596;28;20026;-58
2022/05/02 06:33:28;;;;;;;25.02;13.98;;;9.60;99.90;;;;;;4993838;28;20018;-58
2022/05/02 06:36:15;;;;;;;26.45;14.23;;;9.70;99.90;;;;;;4994030;28;20027;-57
2022/05/02 06:38:48;;;;;;;28.17;15.00;;;9.90;99.90;;;;;;4979039;28;20030;-57
2022/05/02 06:41:48;;;;;;;28.17;15.90;;;10.10;99.90;;;;;;4997582;28;20077;-59
2022/05/02 06:44:50;;;;;;;29.80;15.27;;;10.30;99.90;;;;;;4997397;28;20499;-59
2022/05/02 06:47:18;;;;;;;32.45;17.27;;;10.70;99.90;;;;;;4971216;28;20070;-59
2022/05/02 06:49:50;;;;;;;29.92;16.25;;;10.90;99.90;;;;;;4997146;28;20045;-58
2022/05/02 06:52:23;;;;;;;31.33;17.25;;;11.10;99.90;;;;;;4997192;28;20022;-60
2022/05/02 06:55:27;;;;;;;33.40;18.05;;;11.30;99.90;;;;;;4996859;28;20018;-59
2022/05/02 06:58:30;;;;;;;31.80;18.05;;;11.50;99.90;;;;;;4997336;28;20106;-59
2022/05/02 07:01:05;;;;;;;34.00;19.27;;;11.80;99.90;;;;;;4997452;28;20150;-59
2022/05/02 07:03:50;;;;;;;30.90;18.77;;;11.90;99.90;;;;;;4997521;28;20101;-58
2022/05/02 07:06:52;;;;;;;36.92;19.25;;;12.00;99.90;;;;;;5002752;28;20025;-58
2022/05/02 07:09:27;;;;;;;37.05;20.42;;;12.10;99.90;;;;;;4978359;28;20045;-59
2022/05/02 07:12:04;;;;;;;36.13;20.10;;;12.20;99.90;;;;;;5016387;28;20044;-57
2022/05/02 07:14:40;;;;;;;39.10;22.10;;;12.40;99.90;;;;;;5016287;28;20466;-59
2022/05/02 07:17:25;;;;;;;35.33;20.83;;;12.60;99.90;;;;;;5016275;28;20026;-58
2022/05/02 07:20:02;;;;;;;36.85;20.13;;;12.80;99.90;;;;;;5016513;28;20022;-59
2022/05/02 07:22:58;;;;;;;41.80;20.58;;;13.00;99.90;;;;;;5016201;28;20368;-58
2022/05/02 07:25:25;;;;;;;36.30;20.83;;;13.20;99.90;;;;;;5015158;28;20050;-59
2022/05/02 07:28:05;;;;;;;36.40;20.30;;;13.40;99.90;;;;;;5016030;28;20092;-59
2022/05/02 07:30:32;;;;;;;34.03;20.42;;;13.50;99.90;;;;;;5016091;28;20447;-59
2022/05/02 07:33:01;;;;;;;35.10;19.67;;;13.70;99.90;;;;;;5015640;28;20025;-59
2022/05/02 07:35:29;;;;;;;35.08;20.13;;;13.80;99.90;;;;;;5016190;28;20017;-59
2022/05/02 07:37:57;;;;;;;37.70;19.40;;;13.80;99.90;;;;;;5016096;28;20063;-58
2022/05/02 07:40:24;;;;;;;35.45;19.30;;;13.90;99.90;;;;;;5015865;28;20029;-59
2022/05/02 07:42:52;;;;;;;31.83;18.45;;;14.00;99.90;;;;;;5015718;28;20026;-58
2022/05/02 07:45:24;;;;;;;33.47;18.35;;;14.30;99.90;;;;;;5015398;28;20030;-58
2022/05/02 07:47:52;;;;;;;31.45;18.42;;;14.50;99.90;;;;;;5016170;28;20061;-59
2022/05/02 07:50:21;;;;;;;30.45;18.67;;;14.60;99.90;;;;;;5015400;28;20037;-59
2022/05/02 07:52:50;;;;;;;32.25;18.55;;;14.80;99.90;;;;;;5015237;28;20021;-59
2022/05/02 07:55:20;;;;;;;33.03;18.17;;;14.80;99.90;;;;;;4997928;28;20022;-59
2022/05/02 07:57:48;;;;;;;31.13;18.10;;;15.00;99.90;;;;;;5015431;28;20185;-58
2022/05/02 08:00:14;;;;;;;31.80;17.70;;;14.90;99.90;;;;;;4997815;28;20026;-59
2022/05/02 08:02:41;;;;;;;33.03;17.88;;;15.00;99.90;;;;;;5016081;28;20032;-58
2022/05/02 08:05:07;;;;;;;33.08;17.13;;;15.30;99.90;;;;;;5015374;28;20036;-59
2022/05/02 08:07:43;;;;;;;30.90;16.60;;;15.50;99.90;;;;;;5015217;28;20018;-59
2022/05/02 08:10:22;;;;;;;27.10;16.48;;;15.50;99.90;;;;;;5014276;28;20018;-59
2022/05/02 08:12:57;;;;;;;28.75;17.00;;;15.60;99.90;;;;;;5015513;28;20068;-59
2022/05/02 08:15:30;;;;;;;29.85;16.95;;;15.50;99.90;;;;;;5014597;28;20050;-60
2022/05/02 08:18:13;;;;;;;29.52;16.77;;;15.50;99.90;;;;;;5014910;28;20045;-59
2022/05/02 08:21:02;;;;;;;26.58;16.05;;;15.30;99.90;;;;;;5015376;28;20022;-59
2022/05/02 08:29:55;;;;;;;28.92;16.13;;;15.60;99.90;;;;;;4994978;28;20068;-59
2022/05/02 08:32:43;;;;;;;25.52;15.60;;;15.50;99.90;;;;;;4995537;28;20106;-59
2022/05/02 08:35:23;;;;;;;18.17;11.50;;;15.60;99.90;;;;;;4995215;28;20080;-59
2022/05/02 08:38:16;;;;;;;19.45;11.32;;;15.50;99.90;;;;;;4995621;28;20027;-59
2022/05/02 08:40:50;;;;;;;17.77;9.85;;;15.30;99.90;;;;;;4977609;28;20035;-59
2022/05/02 08:43:41;;;;;;;11.52;7.13;;;15.10;99.90;;;;;;4994779;28;20049;-59
2022/05/02 08:46:19;;;;;;;16.17;8.13;;;15.00;99.90;;;;;;4994976;28;20026;-58
2022/05/02 08:49:36;;;;;;;15.75;8.70;;;15.40;99.90;;;;;;4993896;28;20045;-58
2022/05/02 08:52:35;;;;;;;16.15;9.80;;;15.40;99.90;;;;;;5004205;28;20030;-59
2022/05/02 08:55:01;;;;;;;12.05;7.53;;;15.50;99.90;;;;;;5014704;28;20459;-59
2022/05/02 08:58:10;;;;;;;15.02;8.48;;;15.90;99.90;;;;;;5014366;28;20026;-59
2022/05/02 09:01:03;;;;;;;15.73;9.63;;;16.30;99.90;;;;;;5014671;28;20026;-59
2022/05/02 09:03:53;;;;;;;14.00;8.50;;;16.60;99.90;;;;;;5014372;28;20466;-59
2022/05/02 09:06:49;;;;;;;14.48;8.38;;;16.50;99.90;;;;;;5014368;28;20072;-59
2022/05/02 09:09:52;;;;;;;13.45;8.35;;;16.50;99.90;;;;;;5013256;28;20092;-59
2022/05/02 09:12:35;;;;;;;22.20;12.52;;;16.80;99.90;;;;;;5013909;28;20406;-58
2022/05/02 09:15:28;;;;;;;17.80;10.50;;;16.40;99.90;;;;;;4996261;28;20053;-59
2022/05/02 09:18:18;;;;;;;18.38;11.25;;;16.50;99.90;;;;;;5014157;28;20030;-59
2022/05/02 09:20:44;;;;;;;15.00;9.88;;;16.90;99.90;;;;;;5013866;28;20106;-59
2022/05/02 09:23:27;;;;;;;18.95;10.48;;;17.30;99.90;;;;;;5014511;28;20475;-59
2022/05/02 09:26:38;;;;;;;17.63;10.20;;;17.20;99.90;;;;;;5014057;28;20021;-59
2022/05/02 09:29:04;;;;;;;;;;;17.50;99.90;;;;;;5015059;28;20435;-59
2022/05/02 09:31:57;;;;;;;21.85;12.40;;;17.70;99.90;;;;;;5014263;28;19995;-59
2022/05/02 09:34:25;;;;;;;21.83;12.40;;;17.20;99.90;;;;;;4996194;28;20025;-59
2022/05/02 09:37:05;;;;;;;22.30;13.70;;;16.90;99.90;;;;;;5000726;28;20032;-59
2022/05/02 09:39:48;;;;;;;20.70;12.48;;;16.70;99.90;;;;;;4994423;28;20034;-60
2022/05/02 09:42:33;;;;;;;18.17;11.35;;;16.70;99.90;;;;;;4994103;28;20030;-59
2022/05/02 09:51:58;;;;;;;19.83;11.80;;;17.30;99.90;;;;;;4994146;28;20069;-59
2022/05/02 09:57:22;;;;;;;19.85;12.13;;;17.20;99.90;;;;;;4994173;28;20498;-58
2022/05/02 10:01:06;;;;;;;20.17;12.10;;;17.20;99.90;;;;;;4994025;28;20455;-57
2022/05/02 10:02:44;;;;;;;18.63;11.50;;;17.00;99.90;;;;;;4993558;28;20026;-57
2022/05/02 10:05:17;;;;;;;17.83;11.32;;;17.50;99.90;;;;;;5004281;28;20049;-58
2022/05/02 10:08:04;;;;;;;21.60;11.02;;;17.60;99.90;;;;;;5024183;28;20440;-58
2022/05/02 10:10:39;;;;;;;18.38;11.48;;;17.80;99.90;;;;;;5013343;28;20379;-57
2022/05/02 10:13:32;;;;;;;19.45;11.30;;;17.50;99.90;;;;;;5015970;28;20021;-57
2022/05/02 10:16:16;;;;;;;16.10;10.35;;;17.20;99.90;;;;;;5017698;28;20133;-57
2022/05/02 10:19:07;;;;;;;17.77;10.80;;;17.00;99.90;;;;;;4999751;28;20362;-57
2022/05/02 10:22:08;;;;;;;17.58;10.55;;;16.90;99.90;;;;;;5016566;28;20018;-57
2022/05/02 10:24:54;;;;;;;17.15;10.48;;;16.60;99.90;;;;;;5017569;28;20022;-57
2022/05/02 10:27:50;;;;;;;15.02;10.25;;;16.60;99.90;;;;;;5017402;28;20113;-57
2022/05/02 10:30:18;;;;;;;14.93;10.25;;;16.80;99.90;;;;;;5017429;28;20037;-58
2022/05/02 10:32:56;;;;;;;14.48;9.60;;;17.30;99.90;;;;;;5016803;28;20018;-58
2022/05/02 10:35:23;;;;;;;16.30;9.85;;;17.50;99.90;;;;;;5017602;28;20100;-58
2022/05/02 10:37:59;;;;;;;15.98;10.20;;;17.70;99.90;;;;;;5016967;28;20026;-58
2022/05/02 10:40:34;;;;;;;14.13;9.55;;;17.70;99.90;;;;;;5017116;28;20105;-59
2022/05/02 10:43:04;;;;;;;18.58;10.90;;;18.40;99.90;;;;;;5016798;28;20484;-58
2022/05/02 10:45:33;;;;;;;15.57;10.45;;;18.60;99.90;;;;;;5016505;28;20022;-57
2022/05/02 10:48:11;;;;;;;17.08;9.88;;;18.30;99.90;;;;;;4999572;28;20034;-57
2022/05/02 10:50:37;;;;;;;13.80;9.82;;;17.80;99.90;;;;;;5016747;28;20021;-57
2022/05/02 10:53:27;;;;;;;13.98;9.90;;;17.50;99.90;;;;;;5016720;28;20030;-57
2022/05/02 10:56:09;;;;;;;16.42;10.40;;;17.30;99.90;;;;;;5017110;28;20022;-57
2022/05/02 10:58:35;;;;;;;17.50;9.98;;;17.10;99.90;;;;;;4999748;28;20034;-58
2022/05/02 11:01:09;;;;;;;13.27;9.18;;;17.00;99.90;;;;;;5016727;28;20493;-58
2022/05/02 11:03:53;;;;;;;16.38;9.88;;;17.10;99.90;;;;;;5016697;28;20022;-58
2022/05/02 11:06:22;;;;;;;15.30;9.88;;;17.40;99.90;;;;;;5017154;28;20022;-59
2022/05/02 11:08:57;;;;;;;20.02;11.82;;;17.50;99.90;;;;;;5016289;28;20386;-59
2022/05/02 11:11:27;;;;;;;17.65;10.20;;;17.60;99.90;;;;;;5017343;28;20041;-58
2022/05/02 11:14:14;;;;;;;14.43;9.60;;;17.50;99.90;;;;;;5016316;28;20065;-58
2022/05/02 11:17:10;;;;;;;13.52;8.98;;;17.20;99.90;;;;;;5016503;28;20050;-58
2022/05/02 11:23:24;;;;;;;16.10;9.38;;;17.10;99.90;;;;;;5016288;28;20025;-57
2022/05/02 11:26:05;;;;;;;18.70;10.27;;;17.30;99.90;;;;;;5016344;28;20026;-59
2022/05/02 11:28:36;;;;;;;;;;;17.30;99.90;;;;;;5016167;28;20030;-59
2022/05/02 11:31:26;;;;;;;14.05;8.90;;;17.50;99.90;;;;;;5015019;28;20223;-58
2022/05/02 11:34:30;;;;;;;14.50;8.93;;;17.60;99.90;;;;;;5016647;28;20030;-58
2022/05/02 11:36:58;;;;;;;15.75;9.55;;;17.50;99.90;;;;;;4977616;28;20141;-59
2022/05/02 11:39:59;;;;;;;15.45;9.82;;;17.40;99.90;;;;;;5016294;28;20485;-58
2022/05/02 11:42:28;;;;;;;15.75;9.57;;;17.40;99.90;;;;;;5014621;28;20021;-58
2022/05/02 11:45:17;;;;;;;15.88;10.60;;;17.50;99.90;;;;;;5015663;28;20026;-58
2022/05/02 11:47:57;;;;;;;17.48;10.20;;;17.80;99.90;;;;;;5014860;28;20096;-58
2022/05/02 11:50:25;;;;;;;14.75;9.85;;;18.40;99.90;;;;;;5016164;28;20475;-58
2022/05/02 11:52:56;;;;;;;14.30;9.15;;;18.60;99.90;;;;;;5014925;28;20029;-58
2022/05/02 11:55:34;;;;;;;14.02;9.10;;;18.50;99.90;;;;;;5015772;28;20140;-58
2022/05/02 11:58:07;;;;;;;12.93;8.38;;;18.60;99.90;;;;;;5015651;28;20030;-58
2022/05/02 12:00:36;;;;;;;14.23;9.07;;;18.40;99.90;;;;;;5016000;28;20052;-59
2022/05/02 12:03:15;;;;;;;14.15;8.65;;;18.00;99.90;;;;;;5015805;28;20029;-58
2022/05/02 12:05:42;;;;;;;13.40;8.95;;;17.80;99.90;;;;;;5015572;28;20084;-57
2022/05/02 12:08:10;;;;;;;13.48;8.15;;;17.80;99.90;;;;;;5015453;28;20038;-58
2022/05/02 12:10:47;;;;;;;15.05;9.35;;;17.90;99.90;;;;;;5015710;28;20021;-59
2022/05/02 12:13:15;;;;;;;12.95;9.05;;;17.80;99.90;;;;;;5015374;28;20438;-59
2022/05/02 12:16:02;;;;;;;12.68;9.48;;;17.70;99.90;;;;;;5016037;28;20034;-59
2022/05/02 12:19:08;;;;;;;14.73;9.50;;;17.70;99.90;;;;;;5015390;28;20121;-59
2022/05/02 12:21:47;;;;;;;11.70;8.50;;;18.20;99.90;;;;;;4935702;29;20103;-58
2022/05/02 12:24:26;;;;;;;13.88;9.73;;;18.50;99.90;;;;;;4991449;28;20390;-58
2022/05/02 12:26:53;;;;;;;15.85;9.95;;;18.60;99.90;;;;;;5015462;28;20030;-58
2022/05/02 12:29:20;;;;;;;19.98;11.45;;;18.50;99.90;;;;;;5015797;28;20081;-58
2022/05/02 12:32:05;;;;;;;18.50;11.25;;;18.40;99.90;;;;;;5014988;28;20458;-58
2022/05/02 12:34:52;;;;;;;17.27;11.45;;;18.40;99.90;;;;;;5014806;28;20018;-58
2022/05/02 12:37:34;;;;;;;16.02;11.52;;;18.20;99.90;;;;;;5015215;28;20473;-57
2022/05/02 12:40:04;;;;;;;14.98;10.30;;;18.00;99.90;;;;;;5014651;28;20028;-58
2022/05/02 12:42:38;;;;;;;14.55;9.70;;;18.00;99.90;;;;;;5014911;28;20022;-57
2022/05/02 12:45:07;;;;;;;13.73;9.88;;;18.10;99.90;;;;;;5014555;28;20029;-58
2022/05/02 12:47:54;;;;;;;17.15;11.13;;;18.50;99.90;;;;;;5015202;28;20113;-57
2022/05/02 12:50:25;;;;;;;16.45;11.35;;;18.90;99.90;;;;;;5015047;28;20080;-58
2022/05/02 12:52:57;;;;;;;23.92;17.65;;;18.70;99.20;;;;;;5015198;28;20045;-58
2022/05/02 12:55:30;;;;;;;15.05;10.63;;;18.60;99.90;;;;;;5015061;28;20030;-58
2022/05/02 13:00:48;;;;;;;18.52;12.00;;;18.40;99.90;;;;;;5014554;28;20025;-57
2022/05/02 13:03:14;;;;;;;15.57;10.77;;;18.30;99.90;;;;;;5014525;28;20028;-58
2022/05/02 13:05:45;;;;;;;16.48;11.27;;;18.30;99.90;;;;;;5014428;28;20026;-58
2022/05/02 13:08:19;;;;;;;20.33;11.77;;;18.30;99.90;;;;;;5014182;28;20458;-58
2022/05/02 13:10:49;;;;;;;18.52;11.50;;;18.20;99.90;;;;;;4997755;28;20435;-58
2022/05/02 13:13:17;;;;;;;17.05;11.52;;;18.10;99.90;;;;;;5015065;28;20105;-58
2022/05/02 13:15:51;;;;;;;17.67;12.82;;;18.00;99.90;;;;;;5014441;28;20042;-58
2022/05/02 13:18:18;;;;;;;18.48;10.90;;;18.10;99.90;;;;;;5014290;28;20029;-58
2022/05/02 13:21:03;;;;;;;28.40;20.33;;;18.10;99.90;;;;;;4993375;28;20038;-59
2022/05/02 13:23:40;;;;;;;19.17;11.73;;;18.30;99.90;;;;;;4995201;28;20113;-58
2022/05/02 13:26:37;;;;;;;15.73;10.90;;;18.10;99.90;;;;;;4994984;28;20476;-57
2022/05/02 13:29:28;;;;;;;16.30;11.45;;;17.90;99.90;;;;;;4959236;28;20039;-57
2022/05/02 13:32:00;;;;;;;18.60;13.23;;;17.70;99.90;;;;;;4995054;28;20489;-57
2022/05/02 13:34:29;;;;;;;15.68;10.48;;;17.70;99.90;;;;;;4994509;28;20022;-57
2022/05/02 13:37:26;;;;;;;13.93;10.27;;;17.70;99.90;;;;;;4994445;28;20023;-58
2022/05/02 13:40:01;;;;;;;16.23;10.60;;;17.70;99.90;;;;;;4994161;28;20029;-58